Polk Army Air Field
KPOE : now visible

Airfield :











YOU CAN JOIN US ON...

 
LOGIN :

Register | Disclaimer

   EN    FR    IT 

 









Legend :    VFR   Marginal VFR   IFR   Intensive IFR   Very Intensive IFR
Visi :
Ceiling :
>= 8 km
>= 3000ft
5 to 8 km
1000 to 3000 ft
1500m to 5 km
500 to 1000 ft
800 to 1500m
200 to 500 ft
< 800m
< 200 ft
Symbols :   Thunderstorms  Fog  Heavy snow  Heavy precipitations  Wind > 20 kt







- Airport Elevation : 330 ft


KPOE - Polk Army Air Field

CURRENT METAR :
  • 211658Z AUTO 16007KT 10SM SCT027 BKN033 30/22 A3013 RMK AO2 SLP202 T02970220

EXPIRED METARs :
  • 211613Z AUTO 11010KT 10SM BKN022 28/22 A3013 RMK AO2 LTG DSNT S BKN V SCT SLP202
  • 211558Z AUTO 11007KT 10SM SCT021 28/23 A3014 RMK AO2 SLP205 T02830225
  • 211458Z AUTO 13007KT 10SM CLR 27/22 A3014 RMK AO2 SLP205 T02680223 51011

TAF TAF KPOE
Valid from the 21 at 16:00 until the 22 at 22:00 UTC


211600Z 2116/2222 13009KT 9999 SKC QNH3003INS
BECMG 2121/2122 15012KT 9999 VCSH SCT045 QNH3000INS
BECMG 2201/2202 VRB06KT 9999 NSW FEW250 QNH3004INS
BECMG 2214/2215 15009KT 9999 FEW050 QNH3005INS TX31/2121Z TN23/2212Z
No reported NOTAMs for that airfield.



MET'MAP, your aeronautical weather chart ! - Copyright ORBIFLY December 2007 - Disclaimer

ORBIFLY MET'MAP TEAM :

Programming & Development : Alexandra Zaïnal
Concept & Development : Baudouin d'Aumeries
Co-Development & Prog : Marc-Olivier Méhu
Technical & hardware support : Manuel Goepfert

Contact : metmap@orbifly.com




SOURCES & CREDITS :

   NOAA       Earth
Advisory